createdAt,value
2022-08-12T00:01:09.708Z,100729.31
2022-08-12T00:06:12.955Z,100726.69
2022-08-12T00:11:15.316Z,100717.44
2022-08-12T00:16:17.072Z,100719.13
2022-08-12T00:21:20.100Z,100717.34
2022-08-12T00:26:24.562Z,100711.72
2022-08-12T00:31:26.163Z,100712.91
2022-08-12T00:36:34.715Z,100702.19
2022-08-12T00:41:38.958Z,100708.41
2022-08-12T00:46:54.371Z,100707.28
2022-08-12T00:51:58.285Z,100699.16
2022-08-12T00:57:04.034Z,100697.47
2022-08-12T01:02:12.283Z,100697.47
2022-08-12T01:07:15.818Z,100704.00
2022-08-12T01:12:18.597Z,100701.59
2022-08-12T01:17:22.222Z,100705.19
2022-08-12T01:22:30.025Z,100701.22
2022-08-12T01:27:34.059Z,100702.59
2022-08-12T01:32:35.942Z,100705.28
2022-08-12T01:37:48.571Z,100705.34
2022-08-12T01:42:51.794Z,100706.16
2022-08-12T01:48:14.758Z,100699.66
2022-08-12T01:53:18.637Z,100702.03
2022-08-12T01:58:35.355Z,100701.06
2022-08-12T02:04:06.925Z,100707.72
2022-08-12T02:09:14.039Z,100706.75
2022-08-12T02:14:31.335Z,100707.88
2022-08-12T02:19:47.894Z,100715.78
2022-08-12T02:24:50.720Z,100715.91
2022-08-12T02:29:52.373Z,100717.09
2022-08-12T02:34:54.094Z,100715.78
2022-08-12T02:39:58.897Z,100709.09
2022-08-12T02:45:05.745Z,100712.25
2022-08-12T02:50:09.783Z,100708.75
2022-08-12T02:55:34.834Z,100710.25
2022-08-12T03:00:38.666Z,100712.75
2022-08-12T03:06:05.704Z,100708.56
2022-08-12T03:11:21.194Z,100709.75
2022-08-12T03:16:25.657Z,100705.25
2022-08-12T03:21:55.507Z,100709.41
2022-08-12T03:26:51.907Z,100706.38
2022-08-12T03:31:59.322Z,100711.00
2022-08-12T03:37:05.385Z,100716.91
2022-08-12T03:42:25.396Z,100712.56
2022-08-12T03:47:53.708Z,100722.41
2022-08-12T03:52:55.167Z,100726.69
2022-08-12T03:57:56.932Z,100733.47
2022-08-12T04:02:58.756Z,100738.25
2022-08-12T04:08:00.299Z,100741.38
2022-08-12T04:13:01.777Z,100736.63
2022-08-12T04:18:07.536Z,100737.38
2022-08-12T04:23:11.431Z,100746.28
2022-08-12T04:28:25.971Z,100732.75
2022-08-12T04:33:28.308Z,100745.69
2022-08-12T04:38:30.499Z,100751.44
2022-08-12T04:43:54.453Z,100755.44
2022-08-12T04:48:54.045Z,100754.81
2022-08-12T04:53:56.311Z,100759.44
2022-08-12T04:58:59.113Z,100763.84
2022-08-12T05:04:00.992Z,100758.50
2022-08-12T05:09:02.793Z,100767.81
2022-08-12T05:14:15.101Z,100758.63
2022-08-12T05:19:21.095Z,100771.44
2022-08-12T05:24:24.130Z,100771.00
2022-08-12T05:30:07.164Z,100779.75
2022-08-12T05:34:50.612Z,100779.16
2022-08-12T05:39:52.224Z,100772.66
2022-08-12T05:44:53.931Z,100785.91
2022-08-12T05:49:55.898Z,100785.50
2022-08-12T05:54:58.043Z,100797.00
2022-08-12T05:59:59.708Z,100793.03
2022-08-12T06:05:01.167Z,100788.59
2022-08-12T06:10:03.758Z,100775.47
2022-08-12T06:15:05.927Z,100766.50
2022-08-12T06:20:28.645Z,100764.44
2022-08-12T06:25:30.079Z,100765.81
2022-08-12T06:30:37.901Z,100760.00
2022-08-12T06:35:47.645Z,100756.91
2022-08-12T06:40:57.879Z,100750.81
2022-08-12T06:45:59.863Z,100750.72
2022-08-12T06:51:01.739Z,100739.94
2022-08-12T06:56:03.887Z,100734.78
2022-08-12T07:01:06.343Z,100739.13
2022-08-12T07:06:08.296Z,100731.13
2022-08-12T07:11:11.671Z,100736.88
2022-08-12T07:16:18.404Z,100732.72
2022-08-12T07:21:22.679Z,100722.72
2022-08-12T07:26:24.148Z,100723.84
2022-08-12T07:31:28.288Z,100730.38
2022-08-12T07:36:29.737Z,100722.41
2022-08-12T07:41:32.093Z,100717.13
2022-08-12T07:46:40.495Z,100710.97
2022-08-12T07:51:43.782Z,100711.75
2022-08-12T07:56:45.235Z,100700.88
2022-08-12T08:01:46.785Z,100704.31
2022-08-12T08:06:49.563Z,100696.25
2022-08-12T08:11:53.184Z,100709.63
2022-08-12T08:16:57.201Z,100703.44
2022-08-12T08:21:59.786Z,100697.81
2022-08-12T08:27:01.381Z,100702.13
2022-08-12T08:32:03.053Z,100693.97
2022-08-12T08:37:07.708Z,100694.66
2022-08-12T08:42:16.789Z,100689.53
2022-08-12T08:47:21.003Z,100682.31
2022-08-12T08:52:39.270Z,100716.72
2022-08-12T08:57:45.052Z,100694.88
2022-08-12T09:08:14.483Z,100698.09
2022-08-12T09:18:42.222Z,100682.59
2022-08-12T09:23:59.744Z,100695.16
2022-08-12T09:29:03.243Z,100691.38
2022-08-12T09:34:28.504Z,100682.72
2022-08-12T09:40:05.244Z,100683.59
2022-08-12T09:45:18.230Z,100678.19
2022-08-12T09:50:20.448Z,100673.03
2022-08-12T09:56:06.918Z,100660.81
2022-08-12T10:00:52.044Z,100656.09
2022-08-12T10:06:26.461Z,100660.09
2022-08-12T10:11:18.368Z,100645.59
2022-08-12T10:16:24.402Z,100637.81
2022-08-12T10:21:37.519Z,100642.84
2022-08-12T10:26:41.346Z,100624.56
2022-08-12T10:32:15.697Z,100624.69
2022-08-12T10:37:20.965Z,100626.47
2022-08-12T10:42:39.712Z,100625.31
2022-08-12T10:48:14.965Z,100615.94
2022-08-12T10:53:09.607Z,100591.41
2022-08-12T10:58:15.020Z,100598.66
2022-08-12T11:04:23.174Z,100596.97
2022-08-12T11:08:51.561Z,100584.41
2022-08-12T11:13:54.970Z,100565.47
2022-08-12T11:19:02.624Z,100561.22
2022-08-12T11:24:04.849Z,100568.16
2022-08-12T11:29:22.488Z,100558.06
2022-08-12T11:34:53.757Z,100547.88
2022-08-12T11:45:10.294Z,100549.81
2022-08-12T11:50:19.469Z,100534.69
2022-08-12T11:55:23.492Z,100536.28
2022-08-12T12:05:47.361Z,100538.94
2022-08-12T12:10:50.234Z,100539.94
2022-08-12T12:15:53.143Z,100537.88
2022-08-12T12:20:57.851Z,100514.06
2022-08-12T12:26:07.975Z,100507.53
2022-08-12T12:32:09.288Z,100511.59
2022-08-12T12:36:31.659Z,100500.56
2022-08-12T12:42:41.685Z,100488.50
2022-08-12T12:46:56.627Z,100485.78
2022-08-12T12:52:18.472Z,100491.31
2022-08-12T12:57:24.223Z,100490.50
2022-08-12T13:02:53.584Z,100467.75
2022-08-12T13:08:00.648Z,100461.06
2022-08-12T13:14:09.092Z,100450.28
2022-08-12T13:18:28.516Z,100466.34
2022-08-12T13:23:37.029Z,100459.09
2022-08-12T13:28:42.847Z,100449.97
2022-08-12T13:34:32.494Z,100453.41
2022-08-12T13:39:06.019Z,100451.06
2022-08-12T13:44:10.585Z,100444.69
2022-08-12T13:49:17.528Z,100437.16
2022-08-12T13:54:34.033Z,100431.16
2022-08-12T13:59:48.690Z,100435.44
2022-08-12T14:04:57.102Z,100418.56
2022-08-12T14:09:58.799Z,100429.44
2022-08-12T14:15:00.566Z,100423.63
2022-08-12T14:20:02.245Z,100412.53
2022-08-12T14:25:04.018Z,100423.56
2022-08-12T14:30:15.470Z,100414.69
2022-08-12T14:35:18.608Z,100404.19
2022-08-12T14:40:27.952Z,100412.44
2022-08-12T14:45:44.549Z,100397.00
2022-08-12T14:52:10.740Z,100394.91
2022-08-12T15:01:34.558Z,100397.59
2022-08-12T15:06:39.217Z,100391.69
2022-08-12T15:11:48.738Z,100380.31
2022-08-12T15:16:56.789Z,100391.00
2022-08-12T15:22:37.373Z,100394.22
2022-08-12T15:28:03.121Z,100391.38
2022-08-12T15:32:48.699Z,100371.94
2022-08-12T15:38:19.671Z,100380.09
2022-08-12T15:44:15.621Z,100382.63
2022-08-12T15:48:47.114Z,100367.56
2022-08-12T15:53:49.633Z,100378.84
2022-08-12T15:58:56.555Z,100367.66
2022-08-12T16:04:00.306Z,100376.53
2022-08-12T16:09:02.536Z,100370.66
2022-08-12T16:14:04.071Z,100366.84
2022-08-12T16:19:18.765Z,100366.03
2022-08-12T16:24:20.663Z,100370.47
2022-08-12T16:29:23.811Z,100384.19
2022-08-12T16:34:26.169Z,100357.03
2022-08-12T16:39:59.540Z,100351.94
2022-08-12T16:45:02.775Z,100363.94
2022-08-12T16:50:06.293Z,100355.50
2022-08-12T16:55:08.253Z,100356.06
2022-08-12T17:00:16.442Z,100354.34
2022-08-12T17:05:18.017Z,100354.56
2022-08-12T17:10:35.504Z,100350.78
2022-08-12T17:15:57.386Z,100346.47
2022-08-12T17:21:01.478Z,100344.47
2022-08-12T17:26:03.835Z,100344.13
2022-08-12T17:31:06.603Z,100342.53
2022-08-12T17:36:08.202Z,100355.75
2022-08-12T17:41:22.483Z,100357.88
2022-08-12T17:46:33.589Z,100350.19
2022-08-12T17:51:50.396Z,100354.06
2022-08-12T17:56:57.740Z,100350.03
2022-08-12T18:02:00.438Z,100364.75
2022-08-12T18:07:02.722Z,100369.31
2022-08-12T18:12:08.765Z,100372.13
2022-08-12T18:17:11.466Z,100368.19
2022-08-12T18:22:13.316Z,100375.84
2022-08-12T18:27:30.716Z,100388.44
2022-08-12T18:32:58.205Z,100393.13
2022-08-12T18:37:59.892Z,100400.69
2022-08-12T18:43:01.750Z,100406.75
2022-08-12T18:48:04.505Z,100404.09
2022-08-12T18:53:08.749Z,100412.31
2022-08-12T18:58:36.433Z,100405.81
2022-08-12T19:03:39.592Z,100405.22
2022-08-12T19:08:42.560Z,100419.06
2022-08-12T19:13:49.646Z,100419.53
2022-08-12T19:18:52.783Z,100415.66
2022-08-12T19:23:54.320Z,100426.50
2022-08-12T19:28:58.922Z,100436.97
2022-08-12T19:34:25.493Z,100434.72
2022-08-12T19:39:22.894Z,100431.53
2022-08-12T19:44:27.397Z,100438.88
2022-08-12T19:49:29.057Z,100442.22
2022-08-12T19:54:30.848Z,100448.44
2022-08-12T19:59:43.288Z,100452.00
2022-08-12T20:06:03.480Z,100446.19
2022-08-12T20:10:16.434Z,100453.66
2022-08-12T20:15:18.119Z,100455.94
2022-08-12T20:20:27.766Z,100454.88
2022-08-12T20:25:52.168Z,100460.28
2022-08-12T20:30:53.183Z,100464.56
2022-08-12T20:36:06.489Z,100460.41
2022-08-12T20:41:25.218Z,100467.81
2022-08-12T20:46:29.302Z,100466.97
2022-08-12T20:51:51.061Z,100473.94
2022-08-12T20:56:53.490Z,100471.63
2022-08-12T21:01:55.723Z,100487.78
2022-08-12T21:06:57.568Z,100483.13
2022-08-12T21:12:00.456Z,100488.19
2022-08-12T21:17:04.679Z,100487.66
2022-08-12T21:22:06.855Z,100487.47
2022-08-12T21:27:58.162Z,100481.00
2022-08-12T21:32:50.292Z,100491.84
2022-08-12T21:37:53.136Z,100500.41
2022-08-12T21:42:54.875Z,100502.66
2022-08-12T21:47:56.987Z,100498.03
2022-08-12T21:52:59.328Z,100510.69
2022-08-12T21:58:16.734Z,100505.91
2022-08-12T22:04:01.473Z,100506.69
2022-08-12T22:08:39.953Z,100513.19
2022-08-12T22:14:02.126Z,100519.31
2022-08-12T22:19:09.577Z,100515.16
2022-08-12T22:24:25.882Z,100524.09
2022-08-12T22:29:29.316Z,100525.47
2022-08-12T22:34:33.480Z,100527.41
2022-08-12T22:39:35.234Z,100530.94
2022-08-12T22:44:54.446Z,100533.63
2022-08-12T22:49:59.803Z,100534.56
2022-08-12T22:55:04.157Z,100536.09
2022-08-12T23:00:12.765Z,100531.56
2022-08-12T23:05:36.710Z,100538.41
2022-08-12T23:10:48.283Z,100532.69
2022-08-12T23:15:54.941Z,100526.59
2022-08-12T23:20:57.149Z,100537.56
2022-08-12T23:25:58.784Z,100531.88
2022-08-12T23:31:04.386Z,100537.63
2022-08-12T23:36:06.793Z,100536.09
2022-08-12T23:41:12.621Z,100542.16
2022-08-12T23:46:18.655Z,100541.34
2022-08-12T23:51:24.322Z,100543.94
2022-08-12T23:56:26.551Z,100556.72
